createdAt,value
2022-10-08T00:01:29.725Z,71.40
2022-10-08T00:03:56.407Z,72.50
2022-10-08T00:06:24.898Z,73.00
2022-10-08T00:08:53.639Z,73.80
2022-10-08T00:11:31.347Z,74.30
2022-10-08T00:13:58.033Z,74.90
2022-10-08T00:16:26.966Z,75.20
2022-10-08T00:18:55.387Z,75.60
2022-10-08T00:21:24.075Z,76.00
2022-10-08T00:23:51.129Z,76.00
2022-10-08T00:26:19.645Z,76.10
2022-10-08T00:28:46.797Z,76.20
2022-10-08T00:31:15.467Z,76.50
2022-10-08T00:33:42.193Z,76.50
2022-10-08T00:36:10.733Z,77.00
2022-10-08T00:38:37.571Z,77.00
2022-10-08T00:41:05.479Z,77.50
2022-10-08T00:43:43.275Z,77.60
2022-10-08T00:46:36.338Z,77.80
2022-10-08T00:49:26.197Z,78.60
2022-10-08T00:51:54.377Z,78.40
2022-10-08T00:54:21.562Z,78.50
2022-10-08T00:56:50.216Z,78.70
2022-10-08T00:59:16.899Z,78.80
2022-10-08T01:01:44.133Z,79.20
2022-10-08T01:04:11.316Z,79.20
2022-10-08T01:06:53.344Z,79.60
2022-10-08T01:09:22.664Z,79.50
2022-10-08T01:11:50.935Z,81.70
2022-10-08T01:14:36.181Z,79.90
2022-10-08T01:17:08.926Z,80.30
2022-10-08T01:20:01.089Z,80.30
2022-10-08T01:22:57.130Z,81.10
2022-10-08T01:25:37.739Z,80.90
2022-10-08T01:28:13.702Z,80.70
2022-10-08T01:30:51.820Z,80.90
2022-10-08T01:33:21.684Z,81.30
2022-10-08T01:35:50.808Z,81.60
2022-10-08T01:38:18.064Z,82.10
2022-10-08T01:40:45.277Z,82.10
2022-10-08T01:43:12.595Z,82.40
2022-10-08T01:45:41.521Z,82.90
2022-10-08T01:48:12.322Z,82.60
2022-10-08T01:50:42.454Z,83.00
2022-10-08T01:53:10.960Z,83.10
2022-10-08T01:55:42.350Z,83.20
2022-10-08T01:58:21.127Z,83.30
2022-10-08T02:00:47.816Z,83.60
2022-10-08T02:03:14.431Z,83.60
2022-10-08T02:05:44.384Z,83.60
2022-10-08T02:08:10.980Z,83.50
2022-10-08T02:10:38.677Z,83.50
2022-10-08T02:13:05.291Z,83.60
2022-10-08T02:15:49.369Z,83.50
2022-10-08T02:18:20.802Z,83.60
2022-10-08T02:20:55.543Z,83.60
2022-10-08T02:23:24.143Z,83.80
2022-10-08T02:25:55.219Z,83.70
2022-10-08T02:28:34.023Z,83.70
2022-10-08T02:31:06.591Z,83.70
2022-10-08T02:33:50.679Z,83.80
2022-10-08T02:36:19.944Z,83.90
2022-10-08T02:38:56.447Z,83.90
2022-10-08T02:41:26.090Z,84.10
2022-10-08T02:43:52.703Z,84.20
2022-10-08T02:46:21.193Z,84.50
2022-10-08T02:49:01.739Z,84.70
2022-10-08T02:51:28.821Z,84.70
2022-10-08T02:53:55.467Z,84.70
2022-10-08T02:56:27.438Z,84.80
2022-10-08T02:58:54.154Z,85.50
2022-10-08T03:01:45.488Z,85.60
2022-10-08T03:04:22.974Z,85.80
2022-10-08T03:06:50.118Z,86.10
2022-10-08T03:09:16.772Z,85.90
2022-10-08T03:11:43.380Z,85.60
2022-10-08T03:14:10.954Z,85.60
2022-10-08T03:16:42.042Z,85.70
2022-10-08T03:19:10.188Z,85.50
2022-10-08T03:21:37.511Z,85.50
2022-10-08T03:24:04.261Z,85.30
2022-10-08T03:26:30.867Z,85.20
2022-10-08T03:28:57.479Z,85.50
2022-10-08T03:31:24.112Z,85.60
2022-10-08T03:33:51.613Z,85.50
2022-10-08T03:36:18.328Z,85.60
2022-10-08T03:38:44.942Z,85.40
2022-10-08T03:41:11.543Z,85.30
2022-10-08T03:43:38.187Z,85.40
2022-10-08T03:46:04.999Z,85.40
2022-10-08T03:48:31.846Z,85.70
2022-10-08T03:50:59.866Z,85.80
2022-10-08T03:53:26.884Z,86.00
2022-10-08T03:55:53.717Z,86.10
2022-10-08T03:58:20.674Z,85.90
2022-10-08T04:01:04.493Z,86.10
2022-10-08T04:03:31.213Z,86.20
2022-10-08T04:05:57.943Z,86.40
2022-10-08T04:08:24.907Z,86.40
2022-10-08T04:10:51.770Z,86.30
2022-10-08T04:13:18.458Z,86.20
2022-10-08T04:15:45.309Z,86.10
2022-10-08T04:18:11.942Z,86.10
2022-10-08T04:20:41.616Z,86.10
2022-10-08T04:23:08.188Z,86.00
2022-10-08T04:25:35.051Z,86.60
2022-10-08T04:28:04.801Z,86.30
2022-10-08T04:30:31.539Z,86.30
2022-10-08T04:32:58.368Z,86.10
2022-10-08T04:35:24.979Z,86.20
2022-10-08T04:37:51.671Z,86.00
2022-10-08T04:40:18.290Z,86.00
2022-10-08T04:42:45.340Z,86.20
2022-10-08T04:45:12.303Z,86.70
2022-10-08T04:47:38.946Z,86.90
2022-10-08T04:50:06.049Z,87.00
2022-10-08T04:52:32.659Z,86.70
2022-10-08T04:54:59.237Z,86.70
2022-10-08T04:57:25.865Z,86.50
2022-10-08T05:00:13.586Z,86.40
2022-10-08T05:02:39.124Z,86.20
2022-10-08T05:05:06.186Z,86.10
2022-10-08T05:07:32.768Z,86.10
2022-10-08T05:09:59.360Z,85.90
2022-10-08T05:12:26.026Z,85.80
2022-10-08T05:14:52.755Z,85.80
2022-10-08T05:17:19.419Z,85.90
2022-10-08T05:19:46.093Z,86.00
2022-10-08T05:22:15.652Z,86.10
2022-10-08T05:24:42.339Z,86.00
2022-10-08T05:27:08.953Z,86.00
2022-10-08T05:29:35.592Z,86.00
2022-10-08T05:32:02.207Z,86.10
2022-10-08T05:34:28.845Z,86.40
2022-10-08T05:36:55.566Z,86.70
2022-10-08T05:39:22.246Z,86.90
2022-10-08T05:41:48.877Z,86.90
2022-10-08T05:44:15.583Z,86.80
2022-10-08T05:46:42.354Z,86.50
2022-10-08T05:49:10.685Z,86.10
2022-10-08T05:51:37.291Z,85.70
2022-10-08T05:54:03.993Z,85.30
2022-10-08T05:56:30.598Z,85.20
2022-10-08T05:58:57.207Z,85.10
2022-10-08T06:01:25.664Z,85.20
2022-10-08T06:03:53.503Z,85.50
2022-10-08T06:06:20.612Z,85.70
2022-10-08T06:08:47.385Z,85.70
2022-10-08T06:11:14.173Z,85.60
2022-10-08T06:13:40.828Z,85.50
2022-10-08T06:16:08.760Z,85.40
2022-10-08T06:18:40.058Z,85.50
2022-10-08T06:21:08.434Z,85.60
2022-10-08T06:23:35.069Z,85.80
2022-10-08T06:26:08.296Z,86.40
2022-10-08T06:28:36.103Z,86.80
2022-10-08T06:31:03.252Z,86.90
2022-10-08T06:33:31.143Z,86.60
2022-10-08T06:36:15.605Z,86.20
2022-10-08T06:38:42.530Z,85.70
2022-10-08T06:41:10.309Z,85.60
2022-10-08T06:43:37.108Z,85.50
2022-10-08T06:46:05.278Z,85.10
2022-10-08T06:48:32.025Z,84.80
2022-10-08T06:51:03.631Z,84.90
2022-10-08T06:53:30.741Z,85.10
2022-10-08T06:56:01.563Z,85.40
2022-10-08T06:58:28.276Z,85.50
2022-10-08T07:01:05.225Z,85.40
2022-10-08T07:03:31.981Z,85.10
2022-10-08T07:06:11.312Z,84.80
2022-10-08T07:08:38.265Z,84.50
2022-10-08T07:11:06.823Z,84.30
2022-10-08T07:13:33.700Z,84.00
2022-10-08T07:16:10.882Z,83.90
2022-10-08T07:18:38.190Z,84.00
2022-10-08T07:21:05.223Z,84.00
2022-10-08T07:23:31.867Z,83.70
2022-10-08T07:26:22.844Z,83.40
2022-10-08T07:28:54.447Z,83.30
2022-10-08T07:31:23.250Z,83.10
2022-10-08T07:33:50.109Z,83.30
2022-10-08T07:36:21.182Z,83.50
2022-10-08T07:38:48.729Z,83.30
2022-10-08T07:41:15.828Z,82.90
2022-10-08T07:43:43.222Z,82.20
2022-10-08T07:46:10.978Z,81.80
2022-10-08T07:48:38.546Z,81.50
2022-10-08T07:51:12.835Z,81.20
2022-10-08T07:53:40.272Z,80.70
2022-10-08T07:56:07.746Z,80.60
2022-10-08T07:58:34.868Z,80.50
2022-10-08T08:01:02.907Z,80.50
2022-10-08T08:03:29.654Z,80.20
2022-10-08T08:06:06.797Z,79.90
2022-10-08T08:08:34.672Z,79.80
2022-10-08T08:11:02.671Z,79.80
2022-10-08T08:13:34.292Z,79.30
2022-10-08T08:16:17.789Z,78.90
2022-10-08T08:18:46.123Z,78.60
2022-10-08T08:21:17.412Z,78.10
2022-10-08T08:23:46.051Z,77.40
2022-10-08T08:26:17.824Z,77.20
2022-10-08T08:28:44.459Z,76.80
2022-10-08T08:31:15.964Z,76.40
2022-10-08T08:33:43.609Z,76.30
2022-10-08T08:36:10.387Z,75.80
2022-10-08T08:38:37.358Z,75.30
2022-10-08T08:41:28.723Z,74.70
2022-10-08T08:43:59.838Z,73.40
2022-10-08T08:46:26.565Z,74.00
2022-10-08T08:48:53.437Z,73.70
2022-10-08T08:51:20.012Z,72.90
2022-10-08T08:53:46.645Z,71.50
2022-10-08T08:56:13.314Z,70.20
2022-10-08T08:58:47.988Z,68.50
2022-10-08T09:01:20.882Z,65.00
2022-10-08T09:03:53.392Z,63.80
2022-10-08T09:06:21.571Z,62.00
2022-10-08T09:08:54.643Z,61.10
2022-10-08T09:11:21.845Z,59.90
2022-10-08T09:14:11.879Z,59.70
2022-10-08T09:16:38.975Z,57.30
2022-10-08T09:19:05.652Z,58.80
2022-10-08T09:21:33.225Z,58.60
2022-10-08T09:24:01.698Z,58.30
2022-10-08T09:26:32.140Z,58.20
2022-10-08T09:29:00.938Z,56.30
2022-10-08T09:31:37.332Z,54.20
2022-10-08T09:34:12.787Z,51.90
2022-10-08T09:37:01.301Z,48.70
2022-10-08T09:39:35.361Z,45.70
2022-10-08T09:42:08.192Z,48.00
2022-10-08T09:44:51.100Z,48.10
2022-10-08T09:47:21.779Z,46.90
2022-10-08T09:50:07.789Z,46.70
2022-10-08T09:52:34.874Z,46.80
2022-10-08T09:55:03.736Z,46.30
2022-10-08T09:57:30.355Z,46.00
2022-10-08T09:59:58.027Z,45.40
2022-10-08T10:02:37.273Z,44.60
2022-10-08T10:05:08.051Z,42.60
2022-10-08T10:07:42.576Z,40.80
2022-10-08T10:10:21.183Z,40.70
2022-10-08T10:12:51.077Z,39.60
2022-10-08T10:15:36.238Z,39.90
2022-10-08T10:18:06.264Z,39.30
2022-10-08T10:20:47.035Z,39.80
2022-10-08T10:23:15.718Z,37.40
2022-10-08T10:25:50.159Z,39.50
2022-10-08T10:28:51.442Z,40.80
2022-10-08T10:31:42.361Z,41.20
2022-10-08T10:34:29.078Z,42.00
2022-10-08T10:37:02.626Z,39.70
2022-10-08T10:39:33.925Z,39.90
2022-10-08T10:42:36.725Z,39.50
2022-10-08T10:45:18.787Z,37.90
2022-10-08T10:47:45.451Z,37.60
2022-10-08T10:50:15.467Z,38.30
2022-10-08T10:53:00.877Z,38.60
2022-10-08T10:55:53.853Z,37.90
2022-10-08T10:58:54.939Z,38.60
2022-10-08T11:01:46.792Z,39.40
2022-10-08T11:04:35.768Z,40.10
2022-10-08T11:07:05.582Z,40.30
2022-10-08T11:09:44.672Z,39.80
2022-10-08T11:12:26.300Z,38.90
2022-10-08T11:15:08.594Z,37.70
2022-10-08T11:17:58.230Z,36.20
2022-10-08T11:20:43.466Z,34.40
2022-10-08T11:23:31.191Z,33.90
2022-10-08T11:26:22.339Z,34.00
2022-10-08T11:29:07.374Z,35.30
2022-10-08T11:31:45.532Z,35.40
2022-10-08T11:34:18.559Z,36.30
2022-10-08T11:37:11.125Z,37.20
2022-10-08T11:39:40.477Z,38.60
2022-10-08T11:42:47.513Z,39.30
2022-10-08T11:45:36.084Z,39.80
2022-10-08T17:15:34.700Z,51.90
2022-10-08T17:18:02.707Z,51.40
2022-10-08T17:20:29.555Z,51.80
2022-10-08T17:22:56.214Z,52.20
2022-10-08T17:25:22.878Z,52.40
2022-10-08T17:27:51.200Z,52.50
2022-10-08T17:30:17.969Z,52.70
2022-10-08T17:32:44.841Z,52.90
2022-10-08T17:35:12.993Z,53.20
2022-10-08T17:37:40.968Z,53.50
2022-10-08T17:40:08.347Z,53.80
2022-10-08T17:42:35.336Z,54.00
2022-10-08T17:45:02.197Z,54.10
2022-10-08T17:47:29.412Z,54.20
2022-10-08T17:49:56.143Z,54.40
2022-10-08T17:52:22.864Z,54.60
2022-10-08T17:54:49.616Z,54.80
2022-10-08T17:57:16.390Z,54.90
2022-10-08T17:59:43.052Z,54.90
2022-10-08T18:02:09.753Z,54.80
2022-10-08T18:04:36.739Z,54.90
2022-10-08T18:07:03.836Z,54.90
2022-10-08T18:09:30.553Z,54.90
2022-10-08T18:11:57.207Z,55.10
2022-10-08T18:14:23.826Z,55.20
2022-10-08T18:16:50.627Z,55.50
2022-10-08T18:19:17.973Z,55.70
2022-10-08T18:21:44.885Z,55.90
2022-10-08T18:24:11.540Z,56.10
2022-10-08T18:26:38.272Z,56.30
2022-10-08T18:29:06.917Z,56.60
2022-10-08T18:31:33.733Z,56.60
2022-10-08T18:34:03.131Z,56.90
2022-10-08T18:36:31.136Z,57.00
2022-10-08T18:39:02.548Z,57.20
2022-10-08T18:41:37.089Z,57.30
2022-10-08T18:44:03.905Z,57.70
2022-10-08T18:46:30.739Z,57.80
2022-10-08T18:48:57.434Z,58.30
2022-10-08T18:51:25.548Z,58.50
2022-10-08T18:53:53.008Z,58.70
2022-10-08T20:37:12.494Z,64.00
2022-10-08T20:39:39.175Z,64.00
2022-10-08T20:42:05.929Z,64.30
2022-10-08T20:44:32.594Z,64.60
2022-10-08T20:46:59.395Z,64.80
2022-10-08T20:49:26.196Z,64.90
2022-10-08T20:51:52.831Z,65.10
2022-10-08T20:54:19.471Z,65.20
2022-10-08T20:56:46.277Z,65.40
2022-10-08T20:59:17.089Z,65.50
2022-10-08T21:01:43.917Z,65.80
2022-10-08T21:04:10.595Z,65.80
2022-10-08T21:06:39.798Z,66.00
2022-10-08T21:09:06.494Z,66.10
2022-10-08T21:11:33.268Z,66.10
2022-10-08T21:14:00.085Z,66.50
2022-10-08T21:16:28.460Z,66.40
2022-10-08T21:18:57.321Z,66.30
2022-10-08T21:27:45.120Z,66.70
2022-10-08T21:30:12.494Z,66.60
2022-10-08T21:32:40.516Z,66.60
2022-10-08T21:35:09.617Z,66.80
2022-10-08T21:37:36.721Z,66.90
2022-10-08T21:40:04.299Z,67.00
2022-10-08T21:42:32.833Z,67.10
2022-10-08T21:45:10.062Z,67.20
2022-10-08T22:15:01.664Z,68.10
2022-10-08T23:20:12.652Z,70.60
2022-10-08T23:22:39.256Z,70.20
2022-10-08T23:25:06.373Z,70.30
2022-10-08T23:27:32.963Z,70.30
2022-10-08T23:29:59.608Z,70.40
2022-10-08T23:32:26.235Z,70.60
2022-10-08T23:34:52.829Z,70.80
2022-10-08T23:37:19.444Z,70.90
2022-10-08T23:39:46.026Z,70.90
2022-10-08T23:42:12.618Z,71.00
2022-10-08T23:44:39.393Z,71.30
2022-10-08T23:47:05.982Z,71.50
2022-10-08T23:49:32.604Z,71.40
2022-10-08T23:51:59.200Z,71.50
2022-10-08T23:54:25.976Z,71.40
2022-10-08T23:56:52.546Z,71.60
2022-10-08T23:59:19.320Z,71.60
